createdAt,value
2022-12-03T00:00:06.185Z,98625.28
2022-12-03T00:02:37.407Z,98626.06
2022-12-03T00:05:06.523Z,98634.13
2022-12-03T00:07:34.843Z,98636.94
2022-12-03T00:10:03.271Z,98627.44
2022-12-03T00:12:31.565Z,98623.19
2022-12-03T00:15:01.214Z,98632.84
2022-12-03T00:17:29.626Z,98634.69
2022-12-03T00:19:57.979Z,98625.69
2022-12-03T00:22:26.391Z,98628.34
2022-12-03T00:24:55.002Z,98629.38
2022-12-03T00:27:23.430Z,98632.38
2022-12-03T00:29:51.740Z,98634.69
2022-12-03T00:32:21.390Z,98635.88
2022-12-03T00:34:49.805Z,98631.25
2022-12-03T00:37:18.116Z,98629.69
2022-12-03T00:39:46.336Z,98632.53
2022-12-03T00:42:14.634Z,98628.88
2022-12-03T00:44:43.071Z,98611.63
2022-12-03T00:47:11.589Z,98629.69
2022-12-03T00:49:41.340Z,98640.75
2022-12-03T00:52:09.649Z,98638.06
2022-12-03T00:54:37.966Z,98646.63
2022-12-03T00:57:06.298Z,98640.78
2022-12-03T00:59:34.581Z,98641.72
2022-12-03T01:02:02.962Z,98638.47
2022-12-03T01:04:32.746Z,98638.72
2022-12-03T01:07:02.598Z,98639.63
2022-12-03T01:09:31.287Z,98634.97
2022-12-03T01:11:59.668Z,98644.28
2022-12-03T01:14:27.949Z,98640.50
2022-12-03T01:16:56.227Z,98647.16
2022-12-03T01:19:24.938Z,98623.22
2022-12-03T01:21:53.518Z,98638.47
2022-12-03T01:24:23.426Z,98639.31
2022-12-03T01:26:51.758Z,98642.97
2022-12-03T01:29:20.126Z,98649.97
2022-12-03T01:32:05.962Z,98643.16
2022-12-03T01:34:34.289Z,98617.38
2022-12-03T01:37:02.643Z,98635.31
2022-12-03T01:39:34.425Z,98649.50
2022-12-03T01:42:03.751Z,98655.81
2022-12-03T01:44:36.194Z,98656.78
2022-12-03T01:47:11.650Z,98647.31
2022-12-03T01:49:42.962Z,98665.66
2022-12-03T01:52:14.507Z,98659.97
2022-12-03T01:54:48.229Z,98651.47
2022-12-03T01:57:22.597Z,98652.81
2022-12-03T01:59:52.941Z,98655.97
2022-12-03T02:02:24.780Z,98654.19
2022-12-03T02:04:54.430Z,98659.81
2022-12-03T02:07:28.924Z,98660.81
2022-12-03T02:10:00.563Z,98651.28
2022-12-03T02:12:32.782Z,98656.78
2022-12-03T02:15:01.792Z,98663.75
2022-12-03T02:17:30.432Z,98653.97
2022-12-03T02:19:59.772Z,98657.31
2022-12-03T02:22:35.290Z,98656.75
2022-12-03T02:25:13.546Z,98653.13
2022-12-03T02:27:42.318Z,98656.16
2022-12-03T02:30:12.678Z,98654.97
2022-12-03T02:32:41.377Z,98648.44
2022-12-03T02:35:15.985Z,98649.75
2022-12-03T02:37:46.084Z,98653.41
2022-12-03T02:40:19.655Z,98644.63
2022-12-03T02:42:51.174Z,98644.78
2022-12-03T02:45:22.243Z,98649.13
2022-12-03T02:47:54.342Z,98646.47
2022-12-03T02:50:27.451Z,98639.28
2022-12-03T02:52:59.341Z,98651.81
2022-12-03T02:55:36.487Z,98652.47
2022-12-03T02:58:07.208Z,98643.56
2022-12-03T03:00:37.144Z,98622.63
2022-12-03T03:03:07.759Z,98649.78
2022-12-03T03:05:41.536Z,98640.06
2022-12-03T03:08:11.848Z,98638.44
2022-12-03T03:10:43.238Z,98644.47
2022-12-03T03:13:14.238Z,98635.78
2022-12-03T03:15:43.627Z,98632.13
2022-12-03T03:18:13.523Z,98649.63
2022-12-03T03:20:42.655Z,98647.06
2022-12-03T03:23:17.625Z,98637.25
2022-12-03T03:25:50.612Z,98644.59
2022-12-03T03:28:23.977Z,98637.81
2022-12-03T03:30:53.882Z,98640.78
2022-12-03T03:33:22.886Z,98644.13
2022-12-03T03:35:51.204Z,98640.47
2022-12-03T03:38:21.841Z,98641.47
2022-12-03T03:40:52.933Z,98635.97
2022-12-03T03:43:21.997Z,98644.47
2022-12-03T03:45:54.788Z,98642.47
2022-12-03T03:48:23.746Z,98634.50
2022-12-03T03:50:52.777Z,98614.22
2022-12-03T03:53:22.408Z,98632.19
2022-12-03T03:55:54.297Z,98631.03
2022-12-03T03:58:23.057Z,98633.50
2022-12-03T04:00:51.424Z,98627.53
2022-12-03T04:03:19.755Z,98627.53
2022-12-03T04:05:50.899Z,98623.66
2022-12-03T04:08:19.475Z,98633.50
2022-12-03T04:11:05.140Z,98626.53
2022-12-03T04:13:34.785Z,98621.34
2022-12-03T04:16:03.208Z,98622.00
2022-12-03T04:18:46.311Z,98615.19
2022-12-03T04:21:36.521Z,98622.38
2022-12-03T04:24:06.437Z,98619.03
2022-12-03T04:26:52.772Z,98612.69
2022-12-03T04:29:22.556Z,98617.03
2022-12-03T04:32:08.704Z,98610.88
2022-12-03T04:34:57.246Z,98615.53
2022-12-03T04:37:25.789Z,98614.88
2022-12-03T04:39:54.226Z,98616.88
2022-12-03T04:42:24.584Z,98623.03
2022-12-03T04:44:54.546Z,98607.59
2022-12-03T04:47:23.535Z,98615.81
2022-12-03T04:49:53.117Z,98609.38
2022-12-03T04:52:21.971Z,98616.22
2022-12-03T04:54:50.272Z,98618.56
2022-12-03T04:57:18.634Z,98620.19
2022-12-03T04:59:48.956Z,98619.22
2022-12-03T05:02:18.664Z,98621.72
2022-12-03T05:04:47.039Z,98621.06
2022-12-03T05:07:15.339Z,98602.25
2022-12-03T05:09:43.709Z,98606.44
2022-12-03T05:12:11.990Z,98609.22
2022-12-03T05:14:40.280Z,98601.63
2022-12-03T05:17:08.636Z,98609.09
2022-12-03T05:19:56.092Z,98603.28
2022-12-03T05:22:24.390Z,98609.28
2022-12-03T05:24:53.099Z,98606.28
2022-12-03T05:27:23.873Z,98609.09
2022-12-03T05:29:55.486Z,98601.28
2022-12-03T05:32:23.890Z,98607.44
2022-12-03T05:34:53.918Z,98602.78
2022-12-03T05:37:24.931Z,98607.94
2022-12-03T05:39:53.271Z,98592.09
2022-12-03T05:42:39.108Z,98596.28
2022-12-03T05:45:08.508Z,98591.97
2022-12-03T05:47:39.087Z,98592.28
2022-12-03T05:50:09.596Z,98584.63
2022-12-03T05:52:37.910Z,98580.34
2022-12-03T05:55:07.038Z,98584.47
2022-12-03T05:57:35.376Z,98580.66
2022-12-03T06:00:04.262Z,98588.28
2022-12-03T06:02:41.020Z,98593.34
2022-12-03T06:05:12.463Z,98591.00
2022-12-03T06:07:41.010Z,98596.00
2022-12-03T06:10:14.147Z,98594.34
2022-12-03T06:12:43.225Z,98583.50
2022-12-03T06:15:15.102Z,98604.00
2022-12-03T06:17:43.523Z,98591.03
2022-12-03T06:20:15.237Z,98592.53
2022-12-03T06:22:43.923Z,98609.31
2022-12-03T06:25:13.081Z,98582.06
2022-12-03T06:27:43.582Z,98605.69
2022-12-03T06:30:14.872Z,98612.34
2022-12-03T06:32:43.171Z,98619.69
2022-12-03T06:35:13.101Z,98614.00
2022-12-03T06:37:43.439Z,98613.19
2022-12-03T06:40:13.304Z,98617.31
2022-12-03T06:42:43.905Z,98623.97
2022-12-03T06:45:13.115Z,98615.69
2022-12-03T06:47:41.384Z,98619.97
2022-12-03T06:50:10.308Z,98621.81
2022-12-03T06:52:40.013Z,98627.13
2022-12-03T06:55:09.242Z,98635.31
2022-12-03T06:57:39.908Z,98637.63
2022-12-03T07:00:09.860Z,98627.47
2022-12-03T07:02:38.166Z,98627.97
2022-12-03T07:05:09.748Z,98630.97
2022-12-03T07:07:38.112Z,98627.63
2022-12-03T07:10:09.222Z,98630.63
2022-12-03T07:12:37.896Z,98626.47
2022-12-03T07:15:10.155Z,98615.47
2022-12-03T07:17:38.455Z,98615.31
2022-12-03T07:20:08.212Z,98618.31
2022-12-03T07:22:36.652Z,98598.53
2022-12-03T07:25:05.282Z,98612.66
2022-12-03T07:27:35.028Z,98603.81
2022-12-03T07:30:03.187Z,98601.50
2022-12-03T07:32:31.142Z,98604.66
2022-12-03T07:34:59.221Z,98598.50
2022-12-03T07:37:27.238Z,98598.00
2022-12-03T07:39:55.249Z,98604.31
2022-12-03T07:42:23.281Z,98601.81
2022-12-03T07:44:52.880Z,98614.31
2022-12-03T07:47:22.385Z,98606.66
2022-12-03T07:49:50.471Z,98613.47
2022-12-03T07:52:18.429Z,98605.94
2022-12-03T07:54:46.459Z,98605.47
2022-12-03T07:57:14.484Z,98608.31
2022-12-03T07:59:42.862Z,98606.09
2022-12-03T08:02:15.624Z,98608.63
2022-12-03T08:04:47.572Z,98608.78
2022-12-03T08:07:15.534Z,98601.31
2022-12-03T08:09:43.907Z,98607.78
2022-12-03T08:12:16.302Z,98610.13
2022-12-03T08:14:44.446Z,98601.13
2022-12-03T08:17:16.810Z,98605.94
2022-12-03T08:19:47.387Z,98598.78
2022-12-03T08:22:16.524Z,98599.94
2022-12-03T08:24:44.812Z,98609.09
2022-12-03T08:27:17.586Z,98604.94
2022-12-03T08:29:45.997Z,98617.09
2022-12-03T08:32:15.472Z,98609.59
2022-12-03T08:34:44.715Z,98607.09
2022-12-03T08:37:17.397Z,98602.59
2022-12-03T08:39:46.599Z,98597.41
2022-12-03T08:42:34.891Z,98605.72
2022-12-03T08:45:28.207Z,98602.25
2022-12-03T08:47:58.101Z,98596.88
2022-12-03T08:50:27.462Z,98593.53
2022-12-03T08:52:58.805Z,98593.88
2022-12-03T08:55:32.946Z,98596.16
2022-12-03T08:58:01.227Z,98594.38
2022-12-03T09:00:31.277Z,98590.69
2022-12-03T09:03:02.004Z,98592.19
2022-12-03T09:05:32.305Z,98591.19
2022-12-03T09:08:00.725Z,98579.88
2022-12-03T09:10:28.841Z,98590.81
2022-12-03T09:12:56.857Z,98593.94
2022-12-03T09:15:24.892Z,98592.13
2022-12-03T09:17:52.904Z,98584.66
2022-12-03T09:20:22.280Z,98594.50
2022-12-03T09:22:50.540Z,98586.59
2022-12-03T09:25:20.884Z,98588.56
2022-12-03T09:27:49.692Z,98593.03
2022-12-03T09:30:17.916Z,98563.91
2022-12-03T09:32:45.907Z,98588.69
2022-12-03T09:35:14.097Z,98585.38
2022-12-03T09:37:43.564Z,98589.00
2022-12-03T09:40:12.731Z,98582.59
2022-12-03T09:42:40.955Z,98583.91
2022-12-03T09:45:12.153Z,98586.41
2022-12-03T09:47:41.272Z,98584.47
2022-12-03T09:50:13.643Z,98582.16
2022-12-03T09:52:45.080Z,98576.41
2022-12-03T09:55:16.197Z,98571.94
2022-12-03T09:57:44.503Z,98568.09
2022-12-03T10:00:16.349Z,98568.09
2022-12-03T10:02:44.707Z,98559.03
2022-12-03T10:05:12.988Z,98559.16
2022-12-03T10:07:46.204Z,98553.53
2022-12-03T10:10:15.317Z,98537.91
2022-12-03T10:12:43.570Z,98538.72
2022-12-03T10:15:13.177Z,98533.91
2022-12-03T10:17:41.286Z,98536.75
2022-12-03T10:20:13.592Z,98541.91
2022-12-03T10:22:41.583Z,98526.34
2022-12-03T10:25:12.776Z,98530.94
2022-12-03T10:27:41.155Z,98522.09
2022-12-03T10:30:16.165Z,98517.78
2022-12-03T10:32:44.851Z,98518.72
2022-12-03T10:35:14.429Z,98517.41
2022-12-03T10:37:59.059Z,98521.03
2022-12-03T10:40:29.452Z,98506.47
2022-12-03T10:43:12.355Z,98510.41
2022-12-03T10:45:40.573Z,98503.22
2022-12-03T10:48:12.973Z,98498.16
2022-12-03T10:50:47.588Z,98494.78
2022-12-03T10:53:15.791Z,98487.00
2022-12-03T10:55:46.325Z,98469.38
2022-12-03T10:58:19.874Z,98468.00
2022-12-03T11:00:48.029Z,98458.22
2022-12-03T11:03:19.512Z,98453.78
2022-12-03T11:05:47.888Z,98451.47
2022-12-03T11:08:17.018Z,98445.63
2022-12-03T11:10:46.920Z,98446.28
2022-12-03T11:13:45.146Z,98435.97
2022-12-03T11:16:13.860Z,98435.38
2022-12-03T11:19:06.204Z,98435.94
2022-12-03T11:21:34.293Z,98426.03
2022-12-03T11:24:18.597Z,98418.00
2022-12-03T11:27:06.780Z,98414.81
2022-12-03T11:29:49.090Z,98425.19
2022-12-03T11:32:32.224Z,98422.78
2022-12-03T11:35:00.410Z,98429.31
2022-12-03T11:37:29.482Z,98433.38
2022-12-03T11:40:16.424Z,98429.75
2022-12-03T11:42:45.174Z,98428.38
2022-12-03T11:45:23.821Z,98433.00
2022-12-03T11:48:02.215Z,98425.09
2022-12-03T11:50:37.568Z,98424.41
2022-12-03T11:53:13.415Z,98422.31
2022-12-03T11:55:44.327Z,98416.72
2022-12-03T11:58:16.037Z,98425.66
2022-12-03T12:00:50.379Z,98423.97
2022-12-03T12:03:25.988Z,98423.97
2022-12-03T12:06:04.624Z,98413.44
2022-12-03T12:08:33.162Z,98414.31
2022-12-03T12:11:01.721Z,98403.81
2022-12-03T12:13:44.627Z,98404.81
2022-12-03T12:16:14.139Z,98404.28
2022-12-03T12:18:55.194Z,98396.78
2022-12-03T12:21:43.905Z,98394.09
2022-12-03T12:24:38.167Z,98377.75
2022-12-03T12:27:07.588Z,98376.28
2022-12-03T12:29:40.713Z,98374.31
2022-12-03T12:32:15.084Z,98369.28
2022-12-03T12:34:44.515Z,98376.00
2022-12-03T12:37:14.453Z,98374.81
2022-12-03T12:39:46.601Z,98372.22
2022-12-03T12:42:33.610Z,98367.25
2022-12-03T12:45:09.903Z,98367.53
2022-12-03T12:47:40.507Z,98362.16
2022-12-03T12:50:16.017Z,98364.47
2022-12-03T12:52:49.275Z,98368.22
2022-12-03T12:55:18.131Z,98363.19
2022-12-03T12:57:46.308Z,98365.66
2022-12-03T13:00:21.276Z,98365.59
2022-12-03T13:02:55.827Z,98370.75
2022-12-03T13:05:24.480Z,98361.22
2022-12-03T13:07:53.983Z,98360.34
2022-12-03T13:10:39.885Z,98353.69
2022-12-03T13:13:16.651Z,98350.88
2022-12-03T13:15:48.711Z,98345.25
2022-12-03T13:18:24.688Z,98346.16
2022-12-03T13:20:54.114Z,98345.97
2022-12-03T13:23:28.190Z,98338.31
2022-12-03T13:26:07.134Z,98339.59
2022-12-03T13:28:45.251Z,98348.38
2022-12-03T13:31:24.086Z,98341.72
2022-12-03T13:33:54.310Z,98352.63
2022-12-03T13:36:23.905Z,98338.97
2022-12-03T13:38:52.227Z,98341.19
2022-12-03T13:41:39.097Z,98336.31
2022-12-03T13:44:14.802Z,98338.72
2022-12-03T13:46:43.453Z,98332.63
2022-12-03T13:49:20.937Z,98339.81
2022-12-03T13:51:50.449Z,98337.22
2022-12-03T13:54:20.978Z,98338.97
2022-12-03T13:56:49.366Z,98338.41
2022-12-03T13:59:22.940Z,98342.06
2022-12-03T14:01:54.904Z,98350.84
2022-12-03T14:04:26.649Z,98352.34
2022-12-03T14:06:56.793Z,98349.75
2022-12-03T14:09:24.792Z,98355.56
2022-12-03T14:12:10.274Z,98348.09
2022-12-03T14:14:38.332Z,98350.22
2022-12-03T14:17:09.442Z,98343.81
2022-12-03T14:19:40.878Z,98340.91
2022-12-03T14:22:09.901Z,98345.25
2022-12-03T14:24:39.769Z,98349.38
2022-12-03T14:27:07.784Z,98341.44
2022-12-03T14:29:35.807Z,98346.97
2022-12-03T14:32:03.939Z,98351.53
2022-12-03T14:34:31.935Z,98346.19
2022-12-03T14:37:01.318Z,98350.91
2022-12-03T14:39:29.454Z,98357.53
2022-12-03T14:42:16.452Z,98364.09
2022-12-03T14:44:45.629Z,98356.38
2022-12-03T14:47:14.001Z,98368.25
2022-12-03T14:49:42.214Z,98364.59
2022-12-03T14:52:12.731Z,98367.72
2022-12-03T14:54:42.623Z,98375.72
2022-12-03T14:57:12.344Z,98365.97
2022-12-03T14:59:40.522Z,98364.78
2022-12-03T15:02:08.890Z,98361.81
2022-12-03T15:04:38.125Z,98369.34
2022-12-03T15:07:10.399Z,98364.88
2022-12-03T15:09:39.758Z,98363.94
2022-12-03T15:12:08.298Z,98368.81
2022-12-03T15:14:36.364Z,98372.75
2022-12-03T15:17:04.492Z,98363.44
2022-12-03T15:19:32.572Z,98363.72
2022-12-03T15:22:00.676Z,98354.41
2022-12-03T15:24:28.709Z,98365.16
2022-12-03T15:26:58.230Z,98367.38
2022-12-03T15:29:26.435Z,98376.78
2022-12-03T15:31:54.732Z,98372.88
2022-12-03T15:34:23.403Z,98374.28
2022-12-03T15:36:51.621Z,98367.75
2022-12-03T15:39:22.039Z,98369.78
2022-12-03T15:41:50.142Z,98373.94
2022-12-03T15:44:19.475Z,98370.84
2022-12-03T15:46:47.797Z,98367.66
2022-12-03T15:49:15.993Z,98365.63
2022-12-03T15:51:43.979Z,98365.09
2022-12-03T15:54:12.322Z,98362.22
2022-12-03T15:56:40.382Z,98364.75
2022-12-03T15:59:08.381Z,98367.66
2022-12-03T16:01:37.858Z,98351.75
2022-12-03T16:04:06.168Z,98358.19
2022-12-03T16:06:34.230Z,98348.88
2022-12-03T16:09:02.238Z,98349.13
2022-12-03T16:11:30.436Z,98351.91
2022-12-03T16:13:58.524Z,98346.13
2022-12-03T16:16:26.559Z,98354.69
2022-12-03T16:18:55.982Z,98356.53
2022-12-03T16:21:30.364Z,98352.91
2022-12-03T16:23:59.188Z,98354.91
2022-12-03T16:26:27.276Z,98351.78
2022-12-03T16:28:55.454Z,98350.69
2022-12-03T16:31:23.562Z,98355.56
2022-12-03T16:33:51.618Z,98355.09
2022-12-03T16:36:21.119Z,98351.41
2022-12-03T16:38:49.109Z,98351.53
2022-12-03T16:41:17.122Z,98355.75
2022-12-03T16:43:48.301Z,98361.59
2022-12-03T16:46:25.985Z,98355.03
2022-12-03T16:48:56.377Z,98355.34
2022-12-03T16:51:27.676Z,98360.13
2022-12-03T16:53:55.798Z,98354.97
2022-12-03T16:56:23.829Z,98345.44
2022-12-03T16:58:51.873Z,98345.84
2022-12-03T17:01:23.392Z,98345.25
2022-12-03T17:03:51.689Z,98346.22
2022-12-03T17:06:19.796Z,98345.75
2022-12-03T17:08:50.057Z,98347.63
2022-12-03T17:11:18.820Z,98338.91
2022-12-03T17:13:47.019Z,98318.41
2022-12-03T17:16:15.232Z,98338.75
2022-12-03T17:18:43.663Z,98344.19
2022-12-03T17:21:11.799Z,98340.25
2022-12-03T17:23:39.849Z,98343.56
2022-12-03T17:26:09.233Z,98344.41
2022-12-03T17:28:37.281Z,98340.00
2022-12-03T17:31:05.496Z,98338.13
2022-12-03T17:33:33.590Z,98331.00
2022-12-03T17:36:01.685Z,98340.97
2022-12-03T17:38:34.092Z,98329.47
2022-12-03T17:41:10.545Z,98326.47
2022-12-03T17:43:38.549Z,98326.66
2022-12-03T17:46:07.339Z,98329.03
2022-12-03T17:48:35.502Z,98332.00
2022-12-03T17:51:05.675Z,98332.25
2022-12-03T17:53:33.761Z,98336.00
2022-12-03T17:56:01.823Z,98323.38
2022-12-03T17:58:31.262Z,98342.06
2022-12-03T18:01:02.954Z,98347.06
2022-12-03T18:03:31.799Z,98339.03
2022-12-03T18:05:59.978Z,98340.97
2022-12-03T18:08:28.127Z,98341.28
2022-12-03T18:10:56.236Z,98337.75
2022-12-03T18:13:24.253Z,98330.16
2022-12-03T18:15:53.679Z,98338.47
2022-12-03T18:18:21.834Z,98329.84
2022-12-03T18:20:49.950Z,98325.53
2022-12-03T18:23:18.176Z,98327.25
2022-12-03T18:25:46.326Z,98314.25
2022-12-03T18:28:14.807Z,98319.94
2022-12-03T18:30:47.545Z,98306.91
2022-12-03T18:33:21.262Z,98306.63
2022-12-03T18:35:49.330Z,98311.06
2022-12-03T18:38:18.568Z,98306.88
2022-12-03T18:40:47.226Z,98289.69
2022-12-03T18:43:16.318Z,98304.69
2022-12-03T18:45:44.618Z,98313.78
2022-12-03T18:48:13.656Z,98311.66
2022-12-03T18:50:44.105Z,98315.69
2022-12-03T18:53:12.582Z,98313.97
2022-12-03T18:55:41.568Z,98311.09
2022-12-03T18:58:09.685Z,98304.63
2022-12-03T19:00:38.272Z,98316.38
2022-12-03T19:03:06.985Z,98318.16
2022-12-03T19:05:37.363Z,98312.44
2022-12-03T19:08:14.076Z,98309.06
2022-12-03T19:10:42.707Z,98305.03
2022-12-03T19:13:10.880Z,98299.25
2022-12-03T19:15:38.955Z,98299.03
2022-12-03T19:18:07.467Z,98299.03
2022-12-03T19:20:35.944Z,98303.78
2022-12-03T19:23:04.134Z,98302.78
2022-12-03T19:25:33.484Z,98302.59
2022-12-03T19:28:01.562Z,98293.13
2022-12-03T19:30:32.229Z,98293.88
2022-12-03T19:33:00.305Z,98292.66
2022-12-03T19:35:31.275Z,98295.41
2022-12-03T19:37:59.462Z,98300.00
2022-12-03T19:40:27.681Z,98294.69
2022-12-03T19:42:57.275Z,98297.31
2022-12-03T19:45:25.466Z,98298.06
2022-12-03T19:47:53.531Z,98300.00
2022-12-03T19:50:23.465Z,98301.53
2022-12-03T19:52:51.931Z,98297.06
2022-12-03T19:55:20.646Z,98303.13
2022-12-03T19:57:49.300Z,98310.56
2022-12-03T20:00:21.367Z,98306.31
2022-12-03T20:02:50.161Z,98301.38
2022-12-03T20:05:18.351Z,98298.06
2022-12-03T20:07:46.638Z,98299.19
2022-12-03T20:10:14.845Z,98307.03
2022-12-03T20:12:42.878Z,98301.84
2022-12-03T20:15:11.537Z,98301.25
2022-12-03T20:17:40.938Z,98287.19
2022-12-03T20:20:09.842Z,98289.53
2022-12-03T20:22:37.885Z,98301.91
2022-12-03T20:25:06.387Z,98299.56
2022-12-03T20:27:34.486Z,98295.75
2022-12-03T20:30:02.566Z,98306.56
2022-12-03T20:32:30.616Z,98293.59
2022-12-03T20:34:59.996Z,98290.25
2022-12-03T20:37:28.096Z,98287.44
2022-12-03T20:39:56.625Z,98287.66
2022-12-03T20:42:27.605Z,98292.25
2022-12-03T20:44:55.642Z,98294.59
2022-12-03T20:47:24.049Z,98294.47
2022-12-03T20:49:52.593Z,98293.88
2022-12-03T20:52:22.239Z,98293.44
2022-12-03T20:54:50.502Z,98287.44
2022-12-03T20:57:18.577Z,98271.47
2022-12-03T20:59:46.647Z,98274.41
2022-12-03T21:02:14.845Z,98281.63
2022-12-03T21:04:43.133Z,98279.19
2022-12-03T21:07:13.587Z,98276.03
2022-12-03T21:09:43.086Z,98268.97
2022-12-03T21:12:11.154Z,98274.06
2022-12-03T21:14:39.227Z,98274.00
2022-12-03T21:17:09.162Z,98265.56
2022-12-03T21:19:38.248Z,98274.47
2022-12-03T21:22:06.634Z,98273.00
2022-12-03T21:24:34.778Z,98265.66
2022-12-03T21:27:04.188Z,98274.50
2022-12-03T21:29:32.237Z,98266.63
2022-12-03T21:32:00.454Z,98273.88
2022-12-03T21:34:35.479Z,98268.75
2022-12-03T21:37:04.857Z,98266.22
2022-12-03T21:39:35.250Z,98261.38
2022-12-03T21:42:34.024Z,98259.19
2022-12-03T21:44:55.316Z,98267.88
2022-12-03T21:47:23.921Z,98263.00
2022-12-03T21:49:52.183Z,98262.56
2022-12-03T21:52:20.458Z,98257.53
2022-12-03T21:54:48.434Z,98262.47
2022-12-03T21:57:17.773Z,98268.72
2022-12-03T22:02:40.621Z,98255.84
2022-12-03T22:05:09.786Z,98256.53
2022-12-03T22:07:38.367Z,98263.31
2022-12-03T22:10:08.020Z,98259.81
2022-12-03T22:12:36.251Z,98264.91
2022-12-03T22:15:04.619Z,98255.75
2022-12-03T22:17:35.931Z,98252.00
2022-12-03T22:20:06.245Z,98254.56
2022-12-03T22:22:36.622Z,98247.59
2022-12-03T22:25:05.055Z,98243.22
2022-12-03T22:27:33.163Z,98246.28
2022-12-03T22:30:01.216Z,98236.59
2022-12-03T22:32:29.223Z,98240.34
2022-12-03T22:34:57.234Z,98237.59
2022-12-03T22:37:26.561Z,98233.41
2022-12-03T22:39:54.842Z,98218.78
2022-12-03T22:42:23.068Z,98223.84
2022-12-03T22:44:51.091Z,98219.91
2022-12-03T22:47:19.128Z,98214.75
2022-12-03T22:49:47.469Z,98209.78
2022-12-03T22:52:15.507Z,98217.13
2022-12-03T22:54:46.542Z,98223.34
2022-12-03T22:57:14.606Z,98214.34
2022-12-03T22:59:42.650Z,98221.91
2022-12-03T23:02:10.801Z,98216.44
2022-12-03T23:04:38.899Z,98203.16
2022-12-03T23:07:08.273Z,98203.28
2022-12-03T23:09:36.365Z,98192.75
2022-12-03T23:12:07.392Z,98192.63
2022-12-03T23:14:35.724Z,98192.38
2022-12-03T23:17:04.669Z,98188.22
2022-12-03T23:19:32.769Z,98188.50
2022-12-03T23:22:00.778Z,98186.00
2022-12-03T23:24:28.990Z,98204.16
2022-12-03T23:26:57.547Z,98197.22
2022-12-03T23:29:26.969Z,98187.13
2022-12-03T23:31:55.041Z,98206.81
2022-12-03T23:34:23.139Z,98205.97
2022-12-03T23:36:51.298Z,98202.19
2022-12-03T23:39:19.298Z,98201.16
2022-12-03T23:41:47.294Z,98203.22
2022-12-03T23:44:15.451Z,98194.69
2022-12-03T23:46:47.253Z,98215.94
2022-12-03T23:49:15.347Z,98185.66
2022-12-03T23:51:43.447Z,98208.19
2022-12-03T23:54:13.705Z,98200.19
2022-12-03T23:56:41.938Z,98192.50
2022-12-03T23:59:09.995Z,98198.13
